This is the latest recevied weather packets stored in our database for station/object G4GVZ-1. If no packets are shown the sender has not sent any weather packets the latest 1 day(s).
| Time | Temp. | Humidity | Pressure | Rain* | Wind** | Luminosity | Snow |
|---|---|---|---|---|---|---|---|
| 1778101248 | 8.89° C | 76% | 1014.3 hPa | 0 mm | - | - | - |
| 1778100348 | 9.44° C | 74% | 1014.4 hPa | 0 mm | - | - | - |
| 1778096747 | 10.56° C | 68% | 1013.7 hPa | 0 mm | - | - | - |
| 1778095847 | 11.11° C | 65% | 1013.4 hPa | 0 mm | - | - | - |
| 1778093149 | 12.22° C | 57% | 1013.3 hPa | 0 mm | - | - | - |
| 1778092249 | 12.78° C | 53% | 1013.3 hPa | 0 mm | - | - | - |
| 1778088648 | 13.33° C | 50% | 1013 hPa | 0 mm | - | - | - |
| 1778087748 | 13.89° C | 48% | 1012.9 hPa | 0 mm | - | - | - |
| 1778085049 | 13.89° C | 49% | 1012.8 hPa | 0 mm | - | - | - |
| 1778084149 | 13.89° C | 48% | 1012.8 hPa | 0 mm | - | - | - |
| 1778083249 | 14.44° C | 48% | 1012.9 hPa | 0 mm | - | - | - |
| 1778079650 | 13.89° C | 48% | 1013.1 hPa | 0 mm | - | - | - |
| 1778076950 | 14.44° C | 50% | 1013.2 hPa | 0 mm | - | - | - |
| 1778067049 | 12.22° C | 60% | 1013.9 hPa | 0 mm | - | - | - |
| 1778066149 | 12.22° C | 61% | 1014 hPa | 0 mm | - | - | - |
| 1778063451 | 10.56° C | 64% | 1014.3 hPa | 0 mm | - | - | - |
| 1778062551 | 10.56° C | 66% | 1014.3 hPa | 0 mm | - | - | - |
| 1778059850 | 10° C | 70% | 1014.1 hPa | 0 mm | - | - | - |
| 1778058950 | 9.44° C | 70% | 1014.1 hPa | 0 mm | - | - | - |
| 1778057150 | 8.89° C | 72% | 1014.2 hPa | 0 mm | - | - | - |
| 1778055351 | 8.33° C | 75% | 1014.2 hPa | 0 mm | - | - | - |
| 1778052650 | 7.78° C | 78% | 1013.9 hPa | 0 mm | - | - | - |
| 1778051750 | 8.33° C | 77% | 1013.8 hPa | 0 mm | - | - | - |
| 1778050850 | 8.33° C | 77% | 1013.8 hPa | 0 mm | - | - | - |
| 1778049952 | 7.78° C | 78% | 1013.7 hPa | 0 mm | - | - | - |
* Rain latest hour (hover to see other rain measurements)
** Current wind speed in m/s (hover to see current wind gust speed)